• Join FlightAware (Why Join?)
  • Login
  • US Flag 
11:04AM EDT


 

Airport Tracker/Info


-or-


 

Live Flight TrackerFlight Track Log ✈ RPA3275 ✈ 02-May-2012 ✈ KPHL - KDTW

Flight Track Log - Related Links

Times and Time Zones

All times are in EDT time to prevent confusion due to time zone crossing. See the RPA3275 flight status page for this flight to view local times or setup timezone preferences in your user account.

Time Position Orientation Groundspeed Altitude Reporting Facility
EDT Latitude Longitude Course Direction KTS MPH feet Rate Location/Type
09:17AM 39.8745 -75.2671 81° East  Level FlightAware Approximate
09:18AM 39.8826 -75.3652 90° East  Level FlightAware Approximate
09:19AM 39.8825 -75.2006 67° East 143 165 1,700  Level FAA TRACON SMA TRACON (SMA)
09:19AM 39.8953 -75.1617 65° Northeast 199 229 2,500 1,080 Climbing FAA TRACON SMA TRACON (SMA)
09:20AM 39.9150 -75.1072 41° Northeast 270 311 3,200 1,860 Climbing FAA TRACON SMA TRACON (SMA)
09:21AM 39.9533 -75.0636 336° Northwest 287 330 5,000 2,580 Climbing FAA TRACON SMA TRACON (SMA)
09:21AM 39.9950 -75.0878 321° Northwest 273 314 6,700 2,760 Climbing FAA TRACON SMA TRACON (SMA)
09:22AM 40.0361 -75.1314 271° West 269 310 8,700 2,460 Climbing FAA TRACON SMA TRACON (SMA)
09:23AM 40.0369 -75.1950 252° West 267 307 10,000 960 Climbing FAA TRACON SMA TRACON (SMA)
09:23AM 40.0211 -75.2581 252° West 265 305 10,000  Level FAA TRACON SMA TRACON (SMA)
09:24AM 40.0072 -75.3150 252° West 268 308 10,000 120 Level FAA TRACON SMA TRACON (SMA)
09:25AM 39.9911 -75.3792 252° West 271 312 10,200 1,020 Climbing FAA TRACON SMA TRACON (SMA)
09:25AM 39.9750 -75.4436 252° West 274 315 11,400 1,620 Climbing FAA TRACON SMA TRACON (SMA)
09:26AM 39.9600 -75.5036 271° West 284 327 12,400 1,680 Climbing FAA TRACON SMA TRACON (SMA)
09:27AM 39.9608 -75.5808 277° West 313 360 13,700 1,980 Climbing FAA TRACON SMA TRACON (SMA)
09:27AM 39.9678 -75.6575 276° West 311 358 15,100 2,160 Climbing FAA TRACON SMA TRACON (SMA)
09:28AM 39.9736 -75.7342 277° West 312 359 16,600 1,920 Climbing FAA TRACON SMA TRACON (SMA)
09:29AM 39.9800 -75.8053 276° West 316 364 17,700 1,020 Climbing FAA TRACON SMA TRACON (SMA)
09:29AM 39.9822 -75.8322 276° West 318 366 18,000 1,560 Climbing FAA TRACON SMA TRACON (SMA)
09:31AM 40.0061 -76.1367 278° West 338 389 22,300 1,860 Climbing New York Center
09:32AM 40.0222 -76.2817 276° West 359 413 24,100 1,800 Climbing New York Center
09:33AM 40.0328 -76.4100 275° West 364 419 25,900 1,500 Climbing New York Center
09:34AM 40.0411 -76.5408 277° West 364 419 27,200 1,200 Climbing New York Center
09:35AM 40.0533 -76.6747 275° West 374 430 28,400 1,200 Climbing New York Center
09:36AM 40.0631 -76.8114 273° West 380 437 29,600 1,020 Climbing New York Center
09:37AM 40.0683 -76.9500 272° West 385 443 30,500 1,140 Climbing New York Center
09:38AM 40.0719 -77.0808 273° West 392 451 31,900 720 Climbing New York Center
09:39AM 40.0772 -77.2142 274° West 387 445 32,000  Climbing New York Center
09:40AM 40.0839 -77.3558 274° West 387 445 32,000  Level New York Center
09:41AM 40.0906 -77.4978 273° West 387 445 32,000  Level New York Center
09:43AM 40.1006 -77.7439 273° West 384 442 32,000  Level Cleveland Center
09:44AM 40.1061 -77.8850 273° West 384 442 32,000  Level Cleveland Center
09:45AM 40.1114 -78.0286 272° West 384 442 32,000  Level Cleveland Center
09:46AM 40.1144 -78.1697 273° West 389 448 32,000  Level Cleveland Center
09:47AM 40.1192 -78.2917 272° West 389 448 32,000  Level Cleveland Center
09:48AM 40.1219 -78.4328 272° West 389 448 32,000  Level Cleveland Center
09:49AM 40.1269 -78.5872 272° West 384 442 32,000 -360 Level Cleveland Center
09:50AM 40.1314 -78.7283 273° West 384 442 31,300 -1,020 Descending Cleveland Center
09:51AM 40.1378 -78.8722 271° West 384 442 30,000 -660 Descending Cleveland Center
09:52AM 40.1397 -79.0161 274° West 390 449 30,000  Level Cleveland Center
09:53AM 40.1481 -79.1625 284° West 395 455 30,000  Level Cleveland Center
09:54AM 40.1747 -79.3006 285° West 395 455 30,000  Level Cleveland Center
09:55AM 40.2031 -79.4386 285° West 400 460 30,000  Level Cleveland Center
09:56AM 40.2317 -79.5742 286° West 400 460 30,000  Level Cleveland Center
09:57AM 40.2619 -79.7125 285° West 394 453 30,000  Level Cleveland Center
09:58AM 40.2900 -79.8536 285° West 394 453 30,000  Level Cleveland Center
09:59AM 40.3178 -79.9922 294° West 394 453 30,000  Level Cleveland Center
10:00AM 40.3581 -80.1117 303° West 394 453 30,000  Level Cleveland Center
10:01AM 40.4189 -80.2367 306° West 401 461 30,000  Level Cleveland Center
10:02AM 40.4839 -80.3564 303° West 416 479 30,000  Level Cleveland Center
10:03AM 40.5444 -80.4792 302° West 410 472 30,000  Level Cleveland Center
10:04AM 40.6050 -80.6078 304° West 410 472 30,000  Level Cleveland Center
10:05AM 40.6675 -80.7308 303° West 410 472 30,000  Level Cleveland Center
10:06AM 40.7297 -80.8572 304° West 410 472 30,000 -360 Level Cleveland Center
10:07AM 40.7919 -80.9808 302° West 410 472 29,300 -900 Descending Cleveland Center
10:08AM 40.8558 -81.1183 303° West 410 472 28,200 -1,080 Descending Cleveland Center
10:09AM 40.9158 -81.2425 304° West 405 466 27,200 -1,080 Descending Cleveland Center
10:10AM 40.9756 -81.3614 302° West 405 466 26,100 -1,080 Descending Cleveland Center
10:11AM 41.0331 -81.4833 302° West 398 458 25,100 -1,020 Descending Cleveland Center
10:12AM 41.0883 -81.5997 303° West 392 451 24,100 -600 Descending Cleveland Center
10:13AM 41.1394 -81.7053 304° West 387 445 24,000 -60 Descending Cleveland Center
10:14AM 41.1967 -81.8194 302° West 387 445 24,000  Level Cleveland Center
10:15AM 41.2514 -81.9364 301° West 382 440 24,000  Level Cleveland Center
10:16AM 41.3064 -82.0564 303° West 382 440 24,000 -600 Level Cleveland Center
10:17AM 41.3692 -82.1853 309° West 382 440 22,800 -1,620 Descending Cleveland Center
10:18AM 41.4322 -82.2892 310° West 370 426 20,800 -1,980 Descending Cleveland Center
10:19AM 41.4933 -82.3878 308° West 353 406 18,900 -1,800 Descending Cleveland Center
10:20AM 41.5503 -82.4864 308° West 341 392 17,300 -1,680 Descending Cleveland Center
10:21AM 41.6028 -82.5769 309° West 321 369 15,600 -1,620 Descending Cleveland Center
10:22AM 41.6514 -82.6564 309° West 309 356 14,100 -1,560 Descending Cleveland Center
10:23AM 41.7019 -82.7386 312° West 301 346 12,500 -1,140 Descending Cleveland Center
10:24AM 41.7528 -82.8153 319° Northwest 288 331 11,900 -300 Descending Cleveland Center
10:25AM 41.8117 -82.8844 318° Northwest 275 316 12,000  Climbing Cleveland Center
10:26AM 41.8667 -82.9506 311° West 270 311 11,900  Descending Cleveland Center
10:27AM 41.9153 -83.0247 310° West 273 314 12,000  Climbing Cleveland Center
10:28AM 41.9636 -83.1019 309° West 274 315 12,000 -60 Level Cleveland Center
10:29AM 42.0097 -83.1794 308° West 274 315 11,900  Descending Cleveland Center
10:30AM 42.0619 -83.2681 309° West 271 312 12,000  Climbing Cleveland Center
10:31AM 42.1161 -83.3572 311° West 275 316 12,000  Level Cleveland Center
10:32AM 42.1603 -83.4264 328° Northwest 280 322 12,000 -300 Level Cleveland Center
10:33AM 42.2175 -83.4739 353° North 240 276 11,500 -1,080 Descending Cleveland Center
10:34AM 42.2819 -83.4853 29° Northeast 269 310 10,000 -1,740 Descending Cleveland Center
10:35AM 42.3519 -83.4322 25° Northeast 278 320 8,000 -2,160 Descending Cleveland Center
10:36AM 42.4239 -83.3878 29° Northeast 253 291 5,500 -1,920 Descending Cleveland Center
10:37AM 42.4875 -83.3397 26° Northeast 244 281 4,000 -780 Descending Cleveland Center
10:38AM 42.5428 -83.3028 90° East 226 260 4,000  Level Cleveland Center
10:39AM 42.5425 -83.2211 161° South 226 260 4,000  Level Cleveland Center
10:40AM 42.4972 -83.1994 161° South 168 193 4,000  Level Cleveland Center